createdAt,value
2022-10-15T00:01:38.883Z,13.12
2022-10-15T00:04:07.187Z,13.26
2022-10-15T00:06:35.834Z,13.11
2022-10-15T00:09:05.673Z,13.10
2022-10-15T00:11:33.941Z,12.64
2022-10-15T00:14:02.296Z,11.94
2022-10-15T00:16:31.358Z,12.91
2022-10-15T00:19:01.296Z,13.75
2022-10-15T00:21:29.720Z,13.31
2022-10-15T00:23:58.370Z,13.21
2022-10-15T00:26:30.026Z,13.03
2022-10-15T00:29:00.338Z,13.12
2022-10-15T00:31:30.956Z,13.33
2022-10-15T00:34:01.693Z,13.22
2022-10-15T00:36:31.944Z,12.99
2022-10-15T00:39:01.229Z,12.99
2022-10-15T00:41:32.937Z,13.07
2022-10-15T00:44:03.008Z,13.00
2022-10-15T00:46:34.668Z,12.61
2022-10-15T00:49:07.128Z,13.27
2022-10-15T00:51:41.276Z,13.36
2022-10-15T00:54:11.201Z,12.86
2022-10-15T00:56:42.808Z,13.22
2022-10-15T00:59:13.290Z,13.24
2022-10-15T01:01:42.109Z,13.77
2022-10-15T01:04:10.647Z,13.98
2022-10-15T01:06:39.434Z,13.55
2022-10-15T01:09:07.977Z,13.32
2022-10-15T01:11:43.807Z,13.59
2022-10-15T01:14:24.755Z,13.42
2022-10-15T01:16:58.533Z,13.91
2022-10-15T01:20:05.797Z,13.34
2022-10-15T01:22:48.335Z,12.07
2022-10-15T01:25:31.071Z,13.10
2022-10-15T01:28:13.288Z,12.63
2022-10-15T01:30:46.943Z,13.09
2022-10-15T01:33:31.027Z,11.49
2022-10-15T01:36:07.414Z,12.62
2022-10-15T01:38:47.857Z,13.07
2022-10-15T01:41:22.124Z,13.22
2022-10-15T01:43:58.982Z,13.35
2022-10-15T01:46:36.201Z,13.25
2022-10-15T01:49:06.080Z,12.83
2022-10-15T01:51:38.060Z,12.57
2022-10-15T01:54:08.439Z,12.68
2022-10-15T01:56:38.864Z,13.12
2022-10-15T01:59:08.828Z,13.31
2022-10-15T02:01:38.529Z,13.59
2022-10-15T02:04:20.929Z,13.52
2022-10-15T02:06:54.415Z,12.92
2022-10-15T02:09:36.473Z,11.34
2022-10-15T02:12:16.460Z,11.45
2022-10-15T02:14:51.264Z,12.84
2022-10-15T02:17:26.208Z,13.39
2022-10-15T02:22:36.696Z,13.70
2022-10-15T02:25:09.257Z,13.52
2022-10-15T02:27:39.422Z,13.63
2022-10-15T02:30:10.637Z,13.16
2022-10-15T02:32:42.845Z,12.75
2022-10-15T02:35:13.078Z,12.94
2022-10-15T02:37:48.878Z,12.52
2022-10-15T02:40:17.486Z,12.10
2022-10-15T02:42:45.784Z,12.58
2022-10-15T02:45:14.049Z,12.43
2022-10-15T02:47:43.759Z,12.36
2022-10-15T02:50:12.049Z,12.82
2022-10-15T02:52:40.321Z,12.77
2022-10-15T02:55:09.301Z,12.62
2022-10-15T02:57:37.585Z,12.45
2022-10-15T03:00:06.942Z,12.42
2022-10-15T03:02:35.222Z,12.27
2022-10-15T03:05:05.203Z,12.33
2022-10-15T03:07:33.468Z,12.23
2022-10-15T03:10:01.792Z,12.16
2022-10-15T03:12:30.001Z,12.37
2022-10-15T03:14:58.356Z,12.57
2022-10-15T03:17:26.989Z,12.15
2022-10-15T03:19:55.380Z,12.57
2022-10-15T03:22:25.042Z,12.45
2022-10-15T03:24:53.388Z,12.36
2022-10-15T03:27:21.862Z,12.57
2022-10-15T03:29:50.301Z,12.67
2022-10-15T03:32:18.648Z,12.85
2022-10-15T03:34:46.883Z,12.74
2022-10-15T03:37:15.156Z,13.02
2022-10-15T03:39:44.848Z,12.64
2022-10-15T03:42:13.215Z,12.80
2022-10-15T03:44:41.529Z,12.63
2022-10-15T03:47:09.870Z,12.86
2022-10-15T03:49:38.180Z,13.28
2022-10-15T03:52:06.440Z,13.44
2022-10-15T03:54:34.732Z,13.19
2022-10-15T03:57:04.505Z,13.17
2022-10-15T03:59:32.881Z,12.75
2022-10-15T04:02:01.348Z,12.89
2022-10-15T04:04:29.637Z,13.07
2022-10-15T04:06:57.870Z,13.12
2022-10-15T04:09:26.175Z,12.83
2022-10-15T04:11:54.437Z,12.55
2022-10-15T04:14:24.086Z,12.37
2022-10-15T04:16:52.288Z,12.46
2022-10-15T04:19:20.671Z,12.45
2022-10-15T04:21:48.963Z,12.32
2022-10-15T04:24:17.208Z,12.41
2022-10-15T04:26:45.684Z,12.25
2022-10-15T04:29:14.093Z,12.86
2022-10-15T04:31:43.810Z,12.79
2022-10-15T04:34:12.560Z,12.70
2022-10-15T04:36:40.917Z,12.77
2022-10-15T04:39:12.183Z,12.65
2022-10-15T04:41:42.798Z,12.89
2022-10-15T04:44:11.052Z,12.87
2022-10-15T04:46:39.409Z,12.48
2022-10-15T04:49:09.343Z,12.97
2022-10-15T04:51:37.732Z,11.90
2022-10-15T04:54:06.070Z,13.09
2022-10-15T04:56:34.378Z,13.25
2022-10-15T04:59:02.671Z,13.26
2022-10-15T05:01:30.927Z,13.12
2022-10-15T05:03:59.348Z,12.97
2022-10-15T05:06:29.077Z,13.16
2022-10-15T05:08:57.462Z,13.06
2022-10-15T05:11:27.772Z,13.15
2022-10-15T05:13:57.613Z,12.86
2022-10-15T05:16:27.398Z,12.64
2022-10-15T05:18:58.717Z,13.08
2022-10-15T05:21:28.425Z,13.21
2022-10-15T05:23:56.859Z,13.36
2022-10-15T05:26:26.547Z,12.92
2022-10-15T05:28:55.200Z,12.94
2022-10-15T05:31:24.968Z,13.32
2022-10-15T05:33:54.681Z,13.34
2022-10-15T05:36:25.082Z,13.55
2022-10-15T05:38:56.236Z,13.45
2022-10-15T05:41:25.735Z,13.80
2022-10-15T05:43:55.836Z,14.19
2022-10-15T05:46:24.555Z,14.76
2022-10-15T05:48:53.961Z,14.94
2022-10-15T05:51:22.880Z,15.50
2022-10-15T05:53:54.955Z,15.36
2022-10-15T05:56:23.443Z,15.81
2022-10-15T05:58:52.368Z,16.08
2022-10-15T06:01:21.224Z,16.42
2022-10-15T06:03:49.541Z,16.48
2022-10-15T06:06:20.068Z,16.74
2022-10-15T06:08:48.969Z,16.50
2022-10-15T06:11:19.404Z,16.50
2022-10-15T06:13:48.498Z,16.36
2022-10-15T06:16:22.592Z,16.24
2022-10-15T06:18:53.335Z,16.20
2022-10-15T06:21:21.787Z,16.09
2022-10-15T06:23:50.076Z,16.11
2022-10-15T06:26:19.786Z,15.73
2022-10-15T06:28:49.284Z,15.64
2022-10-15T06:31:17.552Z,15.70
2022-10-15T06:33:45.796Z,16.67
2022-10-15T06:36:14.858Z,16.65
2022-10-15T06:38:44.416Z,16.80
2022-10-15T06:41:12.905Z,17.80
2022-10-15T06:43:42.742Z,18.02
2022-10-15T06:46:11.286Z,18.31
2022-10-15T06:48:39.604Z,18.35
2022-10-15T06:51:07.879Z,18.40
2022-10-15T06:53:36.264Z,18.27
2022-10-15T06:56:05.988Z,19.03
2022-10-15T06:58:34.270Z,19.27
2022-10-15T07:01:05.366Z,19.19
2022-10-15T07:03:33.961Z,18.75
2022-10-15T07:06:03.945Z,19.17
2022-10-15T07:08:32.257Z,18.29
2022-10-15T07:11:02.752Z,17.99
2022-10-15T07:13:31.711Z,17.93
2022-10-15T07:16:06.929Z,17.78
2022-10-15T07:18:36.131Z,17.85
2022-10-15T07:21:05.215Z,17.72
2022-10-15T07:23:33.846Z,17.68
2022-10-15T07:26:02.515Z,17.96
2022-10-15T07:28:30.856Z,17.70
2022-10-15T07:31:02.937Z,17.53
2022-10-15T07:33:34.446Z,17.17
2022-10-15T07:36:05.246Z,17.28
2022-10-15T07:38:33.609Z,17.62
2022-10-15T07:41:02.873Z,18.24
2022-10-15T07:43:31.356Z,18.03
2022-10-15T07:45:59.642Z,18.06
2022-10-15T07:48:28.002Z,18.40
2022-10-15T07:50:58.136Z,18.72
2022-10-15T07:53:26.550Z,18.65
2022-10-15T07:55:54.870Z,18.10
2022-10-15T07:58:23.076Z,18.26
2022-10-15T08:00:51.357Z,18.26
2022-10-15T08:03:19.634Z,18.09
2022-10-15T08:05:48.280Z,18.46
2022-10-15T08:08:18.121Z,18.13
2022-10-15T08:10:46.414Z,18.42
2022-10-15T08:13:14.906Z,18.62
2022-10-15T08:15:43.722Z,18.75
2022-10-15T08:18:12.093Z,19.06
2022-10-15T08:20:41.050Z,18.65
2022-10-15T08:23:16.315Z,18.59
2022-10-15T08:25:46.096Z,18.47
2022-10-15T08:28:14.584Z,19.10
2022-10-15T08:30:42.877Z,19.54
2022-10-15T08:33:11.227Z,19.45
2022-10-15T08:35:43.642Z,20.22
2022-10-15T08:38:14.842Z,21.08
2022-10-15T08:40:50.115Z,21.48
2022-10-15T08:43:24.436Z,22.20
2022-10-15T08:45:55.699Z,22.65
2022-10-15T08:48:30.618Z,23.35
2022-10-15T08:51:04.016Z,23.94
2022-10-15T08:53:39.818Z,23.35
2022-10-15T08:56:17.289Z,24.70
2022-10-15T08:58:53.573Z,25.50
2022-10-15T09:01:29.272Z,26.07
2022-10-15T09:04:08.286Z,25.75
2022-10-15T09:06:38.994Z,25.18
2022-10-15T09:09:14.400Z,24.47
2022-10-15T09:11:55.547Z,24.03
2022-10-15T09:14:27.676Z,23.89
2022-10-15T09:16:55.997Z,22.61
2022-10-15T09:19:27.795Z,22.24
2022-10-15T09:21:56.871Z,21.43
2022-10-15T09:24:27.502Z,21.50
2022-10-15T09:27:08.010Z,20.72
2022-10-15T09:29:43.222Z,21.11
2022-10-15T09:32:19.743Z,21.91
2022-10-15T09:34:54.581Z,21.27
2022-10-15T09:37:29.995Z,21.25
2022-10-15T09:40:21.839Z,21.60
2022-10-15T09:42:54.897Z,22.42
2022-10-15T09:45:24.770Z,22.31
2022-10-15T09:48:00.431Z,21.90
2022-10-15T09:50:40.947Z,22.69
2022-10-15T09:53:22.250Z,22.29
2022-10-15T09:56:02.296Z,22.07
2022-10-15T09:58:38.777Z,22.26
2022-10-15T10:01:08.193Z,22.94
2022-10-15T10:03:38.101Z,22.88
2022-10-15T10:06:09.455Z,22.04
2022-10-15T10:08:40.553Z,23.98
2022-10-15T10:11:11.360Z,24.75
2022-10-15T10:13:46.190Z,26.04
2022-10-15T10:16:17.347Z,26.96
2022-10-15T10:18:51.044Z,26.81
2022-10-15T10:21:27.817Z,27.17
2022-10-15T10:23:56.063Z,27.58
2022-10-15T10:26:24.350Z,27.50
2022-10-15T10:29:04.654Z,27.90
2022-10-15T10:31:42.967Z,27.83
2022-10-15T10:34:17.645Z,26.71
2022-10-15T10:36:51.487Z,27.61
2022-10-15T10:39:26.689Z,27.16
2022-10-15T10:41:57.183Z,27.08
2022-10-15T10:44:34.932Z,27.21
2022-10-15T10:47:10.371Z,27.46
2022-10-15T10:49:41.145Z,27.65
2022-10-15T10:52:21.286Z,27.98
2022-10-15T10:54:55.659Z,28.02
2022-10-15T10:57:33.878Z,28.42
2022-10-15T11:00:08.790Z,29.49
2022-10-15T11:02:41.614Z,28.75
2022-10-15T11:05:10.789Z,28.24
2022-10-15T11:07:48.781Z,28.76
2022-10-15T11:10:23.850Z,29.18
2022-10-15T11:13:04.183Z,27.50
2022-10-15T11:15:45.778Z,27.10
2022-10-15T11:18:32.935Z,28.43
2022-10-15T11:21:12.409Z,28.20
2022-10-15T11:23:56.806Z,29.10
2022-10-15T11:26:51.922Z,28.94
2022-10-15T11:29:37.203Z,30.24
2022-10-15T11:32:24.683Z,29.93
2022-10-15T11:35:24.160Z,30.54
2022-10-15T11:38:13.990Z,30.74
2022-10-15T11:40:53.906Z,30.92
2022-10-15T11:43:38.830Z,29.69
2022-10-15T11:46:15.406Z,29.40
2022-10-15T11:48:59.869Z,27.35
2022-10-15T11:51:34.831Z,28.56
2022-10-15T11:54:28.559Z,28.99
2022-10-15T11:56:59.913Z,29.48
2022-10-15T11:59:37.458Z,31.11
2022-10-15T12:02:14.006Z,30.94
2022-10-15T12:04:48.029Z,28.69
2022-10-15T12:07:21.591Z,28.38
2022-10-15T12:09:54.694Z,29.21
2022-10-15T12:12:35.103Z,28.43
2022-10-15T12:15:16.190Z,27.62
2022-10-15T12:17:53.130Z,26.19
2022-10-15T12:20:24.593Z,25.62
2022-10-15T12:22:59.024Z,25.16
2022-10-15T12:25:45.801Z,24.49
2022-10-15T12:28:20.356Z,24.35
2022-10-15T12:31:02.863Z,23.82
2022-10-15T12:33:37.833Z,23.61
2022-10-15T12:36:22.007Z,23.58
2022-10-15T12:38:58.263Z,23.29
2022-10-15T12:41:38.211Z,23.22
2022-10-15T12:44:08.674Z,23.64
2022-10-15T12:46:39.612Z,23.79
2022-10-15T12:49:41.318Z,24.76
2022-10-15T12:52:42.452Z,24.91
2022-10-15T12:55:36.174Z,24.63
2022-10-15T12:58:07.456Z,23.84
2022-10-15T13:00:38.868Z,24.04
2022-10-15T13:03:24.692Z,23.76
2022-10-15T13:05:55.358Z,23.55
2022-10-15T13:08:25.904Z,22.72
2022-10-15T13:10:58.419Z,22.73
2022-10-15T13:13:30.158Z,22.28
2022-10-15T13:16:01.144Z,22.29
2022-10-15T13:18:31.612Z,22.29
2022-10-15T13:23:35.195Z,21.63
2022-10-15T13:26:19.928Z,22.22
2022-10-15T13:28:49.223Z,22.63
2022-10-15T13:31:27.567Z,22.35
2022-10-15T13:34:04.101Z,22.41
2022-10-15T13:36:35.009Z,22.40
2022-10-15T13:39:07.109Z,22.02
2022-10-15T13:41:40.490Z,21.76
2022-10-15T13:44:20.765Z,21.40
2022-10-15T13:46:49.041Z,21.47
2022-10-15T13:49:18.858Z,22.07
2022-10-15T13:51:50.760Z,21.87
2022-10-15T13:54:22.520Z,21.55
2022-10-15T13:56:55.916Z,21.68
2022-10-15T13:59:25.592Z,21.26
2022-10-15T14:02:00.856Z,21.48
2022-10-15T14:04:31.719Z,21.49
2022-10-15T14:07:03.361Z,21.62
2022-10-15T14:09:34.417Z,21.30
2022-10-15T14:12:07.952Z,21.47
2022-10-15T14:14:39.445Z,21.15
2022-10-15T14:17:10.153Z,21.30
2022-10-15T14:19:40.326Z,21.25
2022-10-15T14:22:08.812Z,21.30
2022-10-15T14:24:38.760Z,21.17
2022-10-15T14:27:15.902Z,20.98
2022-10-15T14:29:46.263Z,20.71
2022-10-15T14:32:26.754Z,20.47
2022-10-15T14:34:56.359Z,19.88
2022-10-15T14:37:34.113Z,20.37
2022-10-15T14:40:17.822Z,20.63
2022-10-15T14:42:50.401Z,20.46
2022-10-15T14:45:25.862Z,20.20
2022-10-15T14:47:57.088Z,20.07
2022-10-15T14:50:27.491Z,20.19
2022-10-15T14:52:56.614Z,20.24
2022-10-15T14:55:33.507Z,20.69
2022-10-15T14:58:09.499Z,20.87
2022-10-15T15:00:43.199Z,20.90
2022-10-15T15:03:18.746Z,20.92
2022-10-15T15:05:48.456Z,20.62
2022-10-15T15:08:16.922Z,20.72
2022-10-15T15:10:46.413Z,20.71
2022-10-15T15:13:21.324Z,20.68
2022-10-15T15:15:49.546Z,20.52
2022-10-15T15:18:17.913Z,20.09
2022-10-15T15:20:48.435Z,20.06
2022-10-15T15:23:21.681Z,20.27
2022-10-15T15:25:50.525Z,20.01
2022-10-15T15:28:21.702Z,20.31
2022-10-15T15:30:57.432Z,20.15
2022-10-15T15:33:26.217Z,19.58
2022-10-15T15:35:56.708Z,19.31
2022-10-15T15:38:30.825Z,19.36
2022-10-15T15:41:04.641Z,18.72
2022-10-15T15:43:34.275Z,18.31
2022-10-15T15:46:02.473Z,18.36
2022-10-15T15:48:30.871Z,18.37
2022-10-15T15:51:03.172Z,18.66
2022-10-15T15:53:31.411Z,18.25
2022-10-15T15:55:59.897Z,18.13
2022-10-15T15:58:28.084Z,18.04
2022-10-15T16:00:57.683Z,18.15
2022-10-15T16:03:25.876Z,18.15
2022-10-15T16:05:54.046Z,18.41
2022-10-15T16:08:22.200Z,18.70
2022-10-15T16:10:50.395Z,18.59
2022-10-15T16:13:18.647Z,18.63
2022-10-15T16:15:46.919Z,18.79
2022-10-15T16:18:16.547Z,18.50
2022-10-15T16:20:48.521Z,17.64
2022-10-15T16:23:17.665Z,17.71
2022-10-15T16:25:45.878Z,17.58
2022-10-15T16:28:14.066Z,18.00
2022-10-15T16:30:42.319Z,17.94
2022-10-15T16:33:10.489Z,17.77
2022-10-15T16:35:40.187Z,17.90
2022-10-15T16:38:08.662Z,18.03
2022-10-15T16:40:36.901Z,18.08
2022-10-15T16:43:05.110Z,18.31
2022-10-15T16:45:33.341Z,17.45
2022-10-15T16:48:01.573Z,17.15
2022-10-15T16:50:29.817Z,17.49
2022-10-15T16:52:59.397Z,17.84
2022-10-15T16:55:28.891Z,17.12
2022-10-15T16:57:57.528Z,17.24
2022-10-15T17:00:25.763Z,17.19
2022-10-15T17:02:55.080Z,17.43
2022-10-15T17:05:23.310Z,17.61
2022-10-15T17:07:51.504Z,17.01
2022-10-15T17:10:25.754Z,16.93
2022-10-15T17:12:54.298Z,17.46
2022-10-15T17:15:22.520Z,17.06
2022-10-15T17:17:50.738Z,17.38
2022-10-15T17:20:19.008Z,16.72
2022-10-15T17:22:47.221Z,16.29
2022-10-15T17:25:15.604Z,16.01
2022-10-15T17:27:45.355Z,15.89
2022-10-15T17:30:13.597Z,15.93
2022-10-15T17:32:42.024Z,15.93
2022-10-15T17:35:10.331Z,16.18
2022-10-15T17:37:39.919Z,16.23
2022-10-15T17:40:09.721Z,16.23
2022-10-15T17:42:42.610Z,15.81
2022-10-15T17:45:12.900Z,16.08
2022-10-15T17:47:41.197Z,16.33
2022-10-15T17:50:10.137Z,16.44
2022-10-15T17:52:38.377Z,16.70
2022-10-15T17:55:07.471Z,16.84
2022-10-15T17:57:35.809Z,16.78
2022-10-15T18:00:04.201Z,16.08
2022-10-15T18:02:33.895Z,16.29
2022-10-15T18:05:02.263Z,15.54
2022-10-15T18:07:30.646Z,15.28
2022-10-15T18:10:01.327Z,15.03
2022-10-15T18:12:29.579Z,15.43
2022-10-15T18:14:57.951Z,15.86
2022-10-15T18:17:26.389Z,16.05
2022-10-15T18:19:56.446Z,15.89
2022-10-15T18:22:24.779Z,16.14
2022-10-15T18:24:53.095Z,16.16
2022-10-15T18:27:21.442Z,16.16
2022-10-15T18:29:49.727Z,16.06
2022-10-15T18:32:18.012Z,16.06
2022-10-15T18:34:46.261Z,16.02
2022-10-15T18:37:16.064Z,15.28
2022-10-15T18:39:44.317Z,15.88
2022-10-15T18:42:12.649Z,15.84
2022-10-15T18:44:41.048Z,15.76
2022-10-15T18:47:09.353Z,15.39
2022-10-15T18:49:37.684Z,14.74
2022-10-15T18:52:15.856Z,14.78
2022-10-15T18:54:55.962Z,15.06
2022-10-15T18:57:24.164Z,15.25
2022-10-15T19:02:27.131Z,15.32
2022-10-15T19:04:55.590Z,15.21
2022-10-15T19:07:24.003Z,14.61
2022-10-15T19:09:52.192Z,14.57
2022-10-15T19:12:21.918Z,14.33
2022-10-15T19:14:50.246Z,14.55
2022-10-15T19:17:18.489Z,14.76
2022-10-15T19:19:50.222Z,14.65
2022-10-15T19:22:18.664Z,14.65
2022-10-15T19:24:46.894Z,14.74
2022-10-15T19:27:15.310Z,14.67
2022-10-15T19:29:44.966Z,14.44
2022-10-15T19:32:13.149Z,14.57
2022-10-15T19:34:41.731Z,14.60
2022-10-15T19:37:10.077Z,14.57
2022-10-15T19:39:39.076Z,14.20
2022-10-15T19:42:07.393Z,14.39
2022-10-15T19:44:35.687Z,14.46
2022-10-15T19:47:05.409Z,14.56
2022-10-15T19:49:34.067Z,14.45
2022-10-15T19:52:05.060Z,14.28
2022-10-15T19:54:33.297Z,14.07
2022-10-15T19:57:01.600Z,13.66
2022-10-15T19:59:30.139Z,13.59
2022-10-15T20:01:58.422Z,13.40
2022-10-15T20:04:28.155Z,13.62
2022-10-15T20:06:56.407Z,13.72
2022-10-15T20:09:24.678Z,13.86
2022-10-15T20:11:52.976Z,14.06
2022-10-15T20:14:21.412Z,14.10
2022-10-15T20:16:49.650Z,13.62
2022-10-15T20:19:17.988Z,13.56
2022-10-15T20:24:20.704Z,13.17
2022-10-15T20:26:50.854Z,13.74
2022-10-15T20:29:19.101Z,13.87
2022-10-15T20:31:47.436Z,13.88
2022-10-15T20:34:15.667Z,13.80
2022-10-15T20:36:43.958Z,13.76
2022-10-15T20:39:13.883Z,13.75
2022-10-15T20:41:42.413Z,13.76
2022-10-15T20:44:12.281Z,13.01
2022-10-15T20:46:44.895Z,13.12
2022-10-15T20:49:16.678Z,13.44
2022-10-15T20:51:46.274Z,13.30
2022-10-15T20:54:16.772Z,12.84
2022-10-15T20:56:45.058Z,13.10
2022-10-15T20:59:13.329Z,13.09
2022-10-15T21:01:41.710Z,13.25
2022-10-15T21:04:10.101Z,13.54
2022-10-15T21:06:38.341Z,13.53
2022-10-15T21:09:06.930Z,13.42
2022-10-15T21:11:41.672Z,13.50
2022-10-15T21:14:10.105Z,13.51
2022-10-15T21:16:38.579Z,13.14
2022-10-15T21:19:07.031Z,12.82
2022-10-15T21:21:35.330Z,13.05
2022-10-15T21:24:03.581Z,13.12
2022-10-15T21:26:31.855Z,13.15
2022-10-15T21:29:01.833Z,12.75
2022-10-15T21:31:30.201Z,13.18
2022-10-15T21:33:58.493Z,13.20
2022-10-15T21:36:28.362Z,13.20
2022-10-15T21:38:58.485Z,13.12
2022-10-15T21:41:27.704Z,12.41
2022-10-15T21:43:56.006Z,12.05
2022-10-15T21:46:26.564Z,12.48
2022-10-15T21:48:56.071Z,12.65
2022-10-15T21:51:26.962Z,12.74
2022-10-15T21:53:56.232Z,12.69
2022-10-15T21:56:24.504Z,12.80
2022-10-15T21:58:54.626Z,13.02
2022-10-15T22:01:24.153Z,12.81
2022-10-15T22:03:58.620Z,12.93
2022-10-15T22:06:26.956Z,12.92
2022-10-15T22:08:55.932Z,12.85
2022-10-15T22:14:02.002Z,12.69
2022-10-15T22:16:30.789Z,12.72
2022-10-15T22:19:00.431Z,11.94
2022-10-15T22:21:30.173Z,12.19
2022-10-15T22:24:00.677Z,12.33
2022-10-15T22:26:31.300Z,12.45
2022-10-15T22:29:02.406Z,12.63
2022-10-15T22:31:31.279Z,12.73
2022-10-15T22:34:00.957Z,12.09
2022-10-15T22:36:30.904Z,11.95
2022-10-15T22:39:01.770Z,12.24
2022-10-15T22:41:32.039Z,12.49
2022-10-15T22:44:00.835Z,12.51
2022-10-15T22:46:29.502Z,12.48
2022-10-15T22:48:57.784Z,12.58
2022-10-15T22:51:27.501Z,12.16
2022-10-15T22:53:56.696Z,12.29
2022-10-15T22:56:25.965Z,11.89
2022-10-15T22:58:54.366Z,12.07
2022-10-15T23:01:25.360Z,11.91
2022-10-15T23:03:55.733Z,11.58
2022-10-15T23:06:25.928Z,11.77
2022-10-15T23:08:56.514Z,11.82
2022-10-15T23:11:27.129Z,11.17
2022-10-15T23:13:56.744Z,10.70
2022-10-15T23:16:26.695Z,10.60
2022-10-15T23:18:56.434Z,10.49
2022-10-15T23:21:30.308Z,10.54
2022-10-15T23:24:00.932Z,10.56
2022-10-15T23:29:04.360Z,10.47
2022-10-15T23:31:35.197Z,11.04
2022-10-15T23:34:04.508Z,11.23
2022-10-15T23:36:34.477Z,11.19
2022-10-15T23:39:06.112Z,11.06
2022-10-15T23:41:34.609Z,11.24
2022-10-15T23:44:02.803Z,11.68
2022-10-15T23:46:31.190Z,11.95
2022-10-15T23:48:59.440Z,11.73
2022-10-15T23:51:29.493Z,11.46
2022-10-15T23:53:59.764Z,11.36
2022-10-15T23:56:30.637Z,11.71
2022-10-15T23:59:00.472Z,11.67
